Time,TemperatureF,DewpointF,PressureIn,WindDirection,WindDirectionDegrees,WindSpeedMPH,WindSpeedGustMPH,Humidity,HourlyPrecipIn,Conditions,Clouds,dailyrainin,SoftwareType,DateUTC
2013-07-16 00:01:00,75.0,41.0,29.57,WNW,282,8.0,11.0,29,0.00,,,0.00,,2013-07-16 06:01:00,
2013-07-16 00:11:00,75.0,41.0,29.57,WNW,282,8.0,11.0,29,0.00,,,0.00,,2013-07-16 06:11:00,
2013-07-16 00:22:00,75.0,41.0,29.56,WNW,285,7.0,10.0,29,0.00,,,0.00,,2013-07-16 06:22:00,
2013-07-16 00:31:00,74.0,41.0,29.56,WNW,284,7.0,10.0,30,0.00,,,0.00,,2013-07-16 06:31:00,
2013-07-16 00:43:00,74.0,41.0,29.56,WNW,284,7.0,10.0,30,0.00,,,0.00,,2013-07-16 06:43:00,
2013-07-16 00:52:00,74.0,41.0,29.57,West,274,7.0,10.0,30,0.00,,,0.00,,2013-07-16 06:52:00,
2013-07-16 01:01:00,74.0,41.0,29.57,West,276,7.0,10.0,30,0.00,,,0.00,,2013-07-16 07:01:00,
2013-07-16 01:11:00,74.0,41.0,29.57,West,276,7.0,10.0,30,0.00,,,0.00,,2013-07-16 07:11:00,
2013-07-16 01:22:00,74.0,41.0,29.58,NNE,30,4.0,11.0,30,0.00,,,0.00,,2013-07-16 07:22:00,
2013-07-16 01:32:00,73.0,41.0,29.58,North,360,1.0,4.0,31,0.00,,,0.00,,2013-07-16 07:32:00,
2013-07-16 01:43:00,73.0,41.0,29.58,North,360,1.0,4.0,31,0.00,,,0.00,,2013-07-16 07:43:00,
2013-07-16 01:52:00,72.0,40.0,29.59,SW,227,2.0,3.0,31,0.00,,,0.00,,2013-07-16 07:52:00,
2013-07-16 02:01:00,73.0,41.0,29.59,SSW,207,1.0,5.0,31,0.00,,,0.00,,2013-07-16 08:01:00,
2013-07-16 02:11:00,73.0,41.0,29.59,SSW,207,1.0,5.0,31,0.00,,,0.00,,2013-07-16 08:11:00,
2013-07-16 02:22:00,71.0,42.0,29.61,SE,128,4.0,9.0,35,0.00,,,0.00,,2013-07-16 08:22:00,
2013-07-16 02:32:00,68.0,42.0,29.62,SW,222,7.0,8.0,39,0.00,,,0.00,,2013-07-16 08:32:00,
2013-07-16 02:43:00,68.0,42.0,29.62,SW,222,7.0,8.0,39,0.00,,,0.00,,2013-07-16 08:43:00,
2013-07-16 02:52:00,70.0,42.0,29.63,NNW,327,2.0,12.0,36,0.00,,,0.00,,2013-07-16 08:52:00,
2013-07-16 03:01:00,69.0,42.0,29.63,NNE,29,2.0,11.0,37,0.00,,,0.00,,2013-07-16 09:01:00,
2013-07-16 03:12:00,69.0,42.0,29.63,NNE,29,2.0,11.0,37,0.00,,,0.00,,2013-07-16 09:12:00,
2013-07-16 03:22:00,68.0,42.0,29.64,South,187,7.0,12.0,39,0.00,,,0.00,,2013-07-16 09:22:00,
2013-07-16 03:42:00,68.0,43.0,29.65,South,188,12.0,15.0,40,0.00,,,0.00,,2013-07-16 09:42:00,
2013-07-16 03:52:00,68.0,43.0,29.65,South,188,12.0,15.0,40,0.00,,,0.00,,2013-07-16 09:52:00,
2013-07-16 04:01:00,68.0,44.0,29.65,South,173,10.0,15.0,42,0.00,,,0.00,,2013-07-16 10:01:00,
2013-07-16 04:11:00,68.0,44.0,29.65,South,173,10.0,15.0,42,0.00,,,0.00,,2013-07-16 10:11:00,
2013-07-16 04:22:00,67.0,44.0,29.66,SSW,192,8.0,17.0,44,0.00,,,0.00,,2013-07-16 10:22:00,
2013-07-16 04:31:00,66.0,45.0,29.67,SSE,153,4.0,15.0,46,0.00,,,0.00,,2013-07-16 10:31:00,
2013-07-16 04:43:00,66.0,45.0,29.67,SSE,153,4.0,15.0,46,0.00,,,0.00,,2013-07-16 10:43:00,
2013-07-16 04:52:00,65.0,46.0,29.67,South,190,3.0,8.0,50,0.00,,,0.00,,2013-07-16 10:52:00,
2013-07-16 05:01:00,64.0,45.0,29.68,ESE,123,0.0,11.0,51,0.00,,,0.00,,2013-07-16 11:01:00,
2013-07-16 05:11:00,64.0,45.0,29.68,ESE,123,0.0,11.0,51,0.00,,,0.00,,2013-07-16 11:11:00,
2013-07-16 05:22:00,62.0,46.0,29.70,NNE,17,4.0,7.0,55,0.00,,,0.00,,2013-07-16 11:22:00,
2013-07-16 05:32:00,61.0,47.0,29.72,East,94,5.0,8.0,59,0.00,,,0.00,,2013-07-16 11:32:00,
2013-07-16 05:42:00,61.0,47.0,29.72,East,94,5.0,8.0,59,0.00,,,0.00,,2013-07-16 11:42:00,
2013-07-16 05:53:00,60.0,47.0,29.73,ESE,115,10.0,13.0,62,0.00,,,0.00,,2013-07-16 11:53:00,
2013-07-16 06:01:00,59.0,47.0,29.73,South,186,7.0,13.0,64,0.00,,,0.00,,2013-07-16 12:01:00,
2013-07-16 06:11:00,59.0,47.0,29.73,South,186,7.0,13.0,64,0.00,,,0.00,,2013-07-16 12:11:00,
2013-07-16 06:22:00,59.0,47.0,29.75,SSE,155,5.0,10.0,65,0.00,,,0.00,,2013-07-16 12:22:00,
2013-07-16 06:32:00,59.0,47.0,29.76,SE,128,5.0,9.0,65,0.00,,,0.00,,2013-07-16 12:32:00,
2013-07-16 06:43:00,59.0,47.0,29.76,SE,128,5.0,9.0,65,0.00,,,0.00,,2013-07-16 12:43:00,
2013-07-16 06:53:00,59.0,47.0,29.77,ESE,107,5.0,11.0,65,0.00,,,0.00,,2013-07-16 12:53:00,
2013-07-16 07:01:00,59.0,47.0,29.78,SE,134,2.0,9.0,65,0.00,,,0.00,,2013-07-16 13:01:00,
2013-07-16 07:11:00,59.0,47.0,29.78,SE,134,2.0,9.0,65,0.00,,,0.00,,2013-07-16 13:11:00,
2013-07-16 07:22:00,60.0,48.0,29.78,SE,124,11.0,18.0,64,0.00,,,0.00,,2013-07-16 13:22:00,
2013-07-16 07:32:00,60.0,47.0,29.78,SSE,166,11.0,16.0,63,0.00,,,0.00,,2013-07-16 13:32:00,
2013-07-16 07:42:00,60.0,47.0,29.78,SSE,166,11.0,16.0,63,0.00,,,0.00,,2013-07-16 13:42:00,
2013-07-16 07:52:00,60.0,48.0,29.79,SSE,147,4.0,10.0,64,0.00,,,0.00,,2013-07-16 13:52:00,
2013-07-16 08:01:00,59.0,47.0,29.79,SE,135,2.0,9.0,64,0.00,,,0.00,,2013-07-16 14:01:00,
2013-07-16 08:11:00,59.0,47.0,29.79,SE,135,2.0,9.0,64,0.00,,,0.00,,2013-07-16 14:11:00,
2013-07-16 08:21:00,59.0,47.0,29.79,East,86,5.0,8.0,65,0.00,,,0.00,,2013-07-16 14:21:00,
2013-07-16 08:32:00,59.0,47.0,29.79,East,86,5.0,8.0,65,0.00,,,0.00,,2013-07-16 14:32:00,
2013-07-16 08:42:00,60.0,49.0,29.79,SE,135,3.0,10.0,66,0.00,,,0.00,,2013-07-16 14:42:00,
2013-07-16 08:52:00,60.0,47.0,29.80,East,101,4.0,8.0,63,0.00,,,0.00,,2013-07-16 14:52:00,
2013-07-16 09:01:00,62.0,48.0,29.79,SE,144,6.0,10.0,61,0.00,,,0.00,,2013-07-16 15:01:00,
2013-07-16 09:11:00,62.0,48.0,29.79,SE,144,6.0,10.0,61,0.00,,,0.00,,2013-07-16 15:11:00,
2013-07-16 09:21:00,63.0,48.0,29.80,ENE,62,7.0,10.0,58,0.00,,,0.00,,2013-07-16 15:21:00,
2013-07-16 09:32:00,62.0,47.0,29.80,North,5,2.0,11.0,58,0.00,,,0.00,,2013-07-16 15:32:00,
2013-07-16 09:43:00,62.0,47.0,29.80,North,5,2.0,11.0,58,0.00,,,0.00,,2013-07-16 15:43:00,
2013-07-16 09:53:00,62.0,47.0,29.80,NE,51,1.0,11.0,57,0.00,,,0.00,,2013-07-16 15:53:00,
2013-07-16 10:01:00,63.0,46.0,29.80,North,5,6.0,9.0,53,0.00,,,0.00,,2013-07-16 16:01:00,
2013-07-16 10:11:00,63.0,46.0,29.80,North,5,6.0,9.0,53,0.00,,,0.00,,2013-07-16 16:11:00,
2013-07-16 10:22:00,64.0,47.0,29.80,NNE,19,9.0,16.0,53,0.00,,,0.00,,2013-07-16 16:22:00,
2013-07-16 10:32:00,64.0,45.0,29.81,NNE,26,14.0,20.0,50,0.00,,,0.00,,2013-07-16 16:32:00,
2013-07-16 10:43:00,64.0,45.0,29.81,NNE,26,14.0,20.0,50,0.00,,,0.00,,2013-07-16 16:43:00,
2013-07-16 10:52:00,64.0,43.0,29.81,NE,34,13.0,20.0,47,0.00,,,0.00,,2013-07-16 16:52:00,
2013-07-16 11:02:00,64.0,43.0,29.81,NNE,17,11.0,19.0,47,0.00,,,0.00,,2013-07-16 17:02:00,
2013-07-16 11:12:00,64.0,43.0,29.81,NNE,17,11.0,19.0,47,0.00,,,0.00,,2013-07-16 17:12:00,
2013-07-16 11:22:00,65.0,45.0,29.81,NNE,32,14.0,19.0,49,0.00,,,0.00,,2013-07-16 17:22:00,
2013-07-16 11:32:00,65.0,45.0,29.81,NNE,32,14.0,19.0,49,0.00,,,0.00,,2013-07-16 17:32:00,
2013-07-16 11:43:00,68.0,46.0,29.82,NE,36,13.0,21.0,46,0.00,,,0.00,,2013-07-16 17:43:00,
2013-07-16 11:53:00,67.0,46.0,29.81,NNE,26,11.0,19.0,47,0.00,,,0.00,,2013-07-16 17:53:00,
2013-07-16 12:01:00,66.0,46.0,29.81,NNE,22,12.0,23.0,48,0.00,,,0.00,,2013-07-16 18:01:00,
2013-07-16 12:11:00,66.0,46.0,29.81,NNE,22,12.0,23.0,48,0.00,,,0.00,,2013-07-16 18:11:00,
2013-07-16 12:22:00,67.0,46.0,29.81,North,360,13.0,18.0,47,0.00,,,0.00,,2013-07-16 18:22:00,
2013-07-16 12:32:00,67.0,47.0,29.81,NE,38,9.0,17.0,48,0.00,,,0.00,,2013-07-16 18:32:00,
2013-07-16 12:43:00,67.0,47.0,29.81,NE,38,9.0,17.0,48,0.00,,,0.00,,2013-07-16 18:43:00,
2013-07-16 12:53:00,68.0,47.0,29.81,NNE,26,12.0,19.0,47,0.00,,,0.00,,2013-07-16 18:53:00,
2013-07-16 13:01:00,69.0,47.0,29.81,North,5,11.0,22.0,46,0.00,,,0.00,,2013-07-16 19:01:00,
2013-07-16 13:11:00,69.0,47.0,29.81,North,5,11.0,22.0,46,0.00,,,0.00,,2013-07-16 19:11:00,
2013-07-16 13:22:00,68.0,46.0,29.81,NE,38,16.0,23.0,45,0.00,,,0.00,,2013-07-16 19:22:00,
2013-07-16 13:32:00,68.0,46.0,29.81,NNE,20,15.0,23.0,45,0.00,,,0.00,,2013-07-16 19:32:00,
2013-07-16 13:43:00,68.0,46.0,29.81,NNE,20,15.0,23.0,45,0.00,,,0.00,,2013-07-16 19:43:00,
2013-07-16 13:52:00,69.0,48.0,29.80,North,9,13.0,21.0,47,0.00,,,0.00,,2013-07-16 19:52:00,
2013-07-16 14:03:00,69.0,47.0,29.80,NNE,22,15.0,21.0,46,0.00,,,0.00,,2013-07-16 20:03:00,
2013-07-16 14:11:00,69.0,47.0,29.80,NNE,22,15.0,21.0,46,0.00,,,0.00,,2013-07-16 20:11:00,
2013-07-16 14:22:00,69.0,48.0,29.80,NNE,32,16.0,20.0,48,0.00,,,0.00,,2013-07-16 20:22:00,
2013-07-16 14:32:00,68.0,49.0,29.80,North,9,12.0,20.0,50,0.00,,,0.00,,2013-07-16 20:32:00,
2013-07-16 14:43:00,68.0,49.0,29.80,North,9,12.0,20.0,50,0.00,,,0.00,,2013-07-16 20:43:00,
2013-07-16 14:52:00,67.0,48.0,29.83,NE,35,7.0,11.0,51,0.00,,,0.00,,2013-07-16 20:52:00,
2013-07-16 15:01:00,67.0,48.0,29.83,NE,35,7.0,11.0,51,0.00,,,0.00,,2013-07-16 21:01:00,
2013-07-16 15:11:00,66.0,48.0,29.83,NNE,31,13.0,18.0,53,0.00,,,0.00,,2013-07-16 21:11:00,
2013-07-16 15:22:00,67.0,50.0,29.83,NE,36,6.0,14.0,55,0.00,,,0.00,,2013-07-16 21:22:00,
2013-07-16 15:43:00,67.0,51.0,29.84,NNE,26,7.0,13.0,56,0.00,,,0.00,,2013-07-16 21:43:00,
2013-07-16 15:52:00,66.0,49.0,29.82,North,11,11.0,19.0,54,0.00,,,0.00,,2013-07-16 21:52:00,
2013-07-16 16:01:00,65.0,49.0,29.83,NE,46,10.0,13.0,57,0.00,,,0.00,,2013-07-16 22:01:00,
2013-07-16 16:11:00,65.0,49.0,29.83,NE,46,10.0,13.0,57,0.00,,,0.00,,2013-07-16 22:11:00,
2013-07-16 16:22:00,64.0,48.0,29.84,SE,134,7.0,12.0,57,0.00,,,0.00,,2013-07-16 22:22:00,
2013-07-16 16:33:00,63.0,48.0,29.85,SSE,161,3.0,6.0,58,0.00,,,0.00,,2013-07-16 22:33:00,
2013-07-16 16:43:00,63.0,48.0,29.85,SSE,161,3.0,6.0,58,0.00,,,0.00,,2013-07-16 22:43:00,
2013-07-16 16:52:00,63.0,49.0,29.86,South,172,4.0,7.0,60,0.00,,,0.00,,2013-07-16 22:52:00,
2013-07-16 17:01:00,62.0,50.0,29.86,SSE,159,6.0,9.0,64,0.00,,,0.00,,2013-07-16 23:01:00,
2013-07-16 17:11:00,62.0,50.0,29.86,SSE,159,6.0,9.0,64,0.00,,,0.00,,2013-07-16 23:11:00,
2013-07-16 17:22:00,62.0,49.0,29.88,SSE,161,9.0,12.0,63,0.00,,,0.00,,2013-07-16 23:22:00,
2013-07-16 17:32:00,62.0,51.0,29.88,SSE,167,2.0,8.0,66,0.00,,,0.00,,2013-07-16 23:32:00,
2013-07-16 17:43:00,62.0,51.0,29.88,SSE,167,2.0,8.0,66,0.00,,,0.00,,2013-07-16 23:43:00,
2013-07-16 17:52:00,61.0,51.0,29.89,SW,223,2.0,6.0,69,0.00,,,0.00,,2013-07-16 23:52:00,
2013-07-16 18:01:00,61.0,52.0,29.88,NNE,24,1.0,4.0,73,0.01,,,0.01,,2013-07-17 00:01:00,
2013-07-16 18:11:00,61.0,52.0,29.88,NNE,24,1.0,4.0,73,0.01,,,0.01,,2013-07-17 00:11:00,
2013-07-16 18:22:00,61.0,52.0,29.88,NE,36,0.0,3.0,72,0.01,,,0.01,,2013-07-17 00:22:00,
2013-07-16 18:33:00,61.0,53.0,29.88,NNE,25,4.0,6.0,74,0.01,,,0.01,,2013-07-17 00:33:00,
2013-07-16 18:42:00,61.0,53.0,29.88,NNE,25,4.0,6.0,74,0.01,,,0.01,,2013-07-17 00:42:00,
2013-07-16 18:52:00,60.0,51.0,29.87,ENE,63,0.0,4.0,73,0.01,,,0.01,,2013-07-17 00:52:00,
2013-07-16 19:01:00,60.0,51.0,29.87,SE,125,4.0,8.0,72,0.00,,,0.01,,2013-07-17 01:01:00,
2013-07-16 19:11:00,60.0,51.0,29.87,SE,125,4.0,8.0,72,0.00,,,0.01,,2013-07-17 01:11:00,
2013-07-16 19:22:00,60.0,53.0,29.87,SE,144,3.0,6.0,78,0.00,,,0.01,,2013-07-17 01:22:00,
2013-07-16 19:32:00,59.0,52.0,29.88,South,177,10.0,13.0,79,0.00,,,0.01,,2013-07-17 01:32:00,
2013-07-16 19:43:00,59.0,52.0,29.88,South,177,10.0,13.0,79,0.00,,,0.01,,2013-07-17 01:43:00,
2013-07-16 19:53:00,59.0,53.0,29.88,SSE,155,5.0,11.0,80,0.00,,,0.01,,2013-07-17 01:53:00,
2013-07-16 20:01:00,58.0,52.0,29.88,SE,126,5.0,9.0,81,0.00,,,0.01,,2013-07-17 02:01:00,
2013-07-16 20:11:00,58.0,52.0,29.88,SE,126,5.0,9.0,81,0.00,,,0.01,,2013-07-17 02:11:00,
2013-07-16 20:22:00,58.0,53.0,29.88,SSW,198,2.0,8.0,83,0.00,,,0.01,,2013-07-17 02:22:00,
2013-07-16 20:32:00,58.0,53.0,29.85,West,261,11.0,15.0,82,0.00,,,0.01,,2013-07-17 02:32:00,
2013-07-16 20:43:00,58.0,53.0,29.85,West,261,11.0,15.0,82,0.00,,,0.01,,2013-07-17 02:43:00,
2013-07-16 20:53:00,61.0,54.0,29.85,West,264,10.0,15.0,78,0.00,,,0.01,,2013-07-17 02:53:00,
2013-07-16 21:01:00,60.0,54.0,29.85,ESE,121,3.0,12.0,80,0.00,,,0.01,,2013-07-17 03:01:00,
2013-07-16 21:11:00,60.0,54.0,29.85,ESE,121,3.0,12.0,80,0.00,,,0.01,,2013-07-17 03:11:00,
2013-07-16 21:22:00,58.0,54.0,29.86,ENE,71,6.0,9.0,87,0.00,,,0.01,,2013-07-17 03:22:00,
2013-07-16 21:32:00,56.0,52.0,29.89,East,84,1.0,8.0,87,0.00,,,0.01,,2013-07-17 03:32:00,
2013-07-16 21:43:00,56.0,52.0,29.89,East,84,1.0,8.0,87,0.00,,,0.01,,2013-07-17 03:43:00,
2013-07-16 21:53:00,56.0,53.0,29.88,West,271,3.0,5.0,89,0.00,,,0.01,,2013-07-17 03:53:00,
2013-07-16 22:01:00,57.0,53.0,29.88,NNW,346,3.0,7.0,88,0.00,,,0.01,,2013-07-17 04:01:00,
2013-07-16 22:11:00,57.0,53.0,29.88,NNW,346,3.0,7.0,88,0.00,,,0.01,,2013-07-17 04:11:00,
2013-07-16 22:22:00,57.0,54.0,29.89,East,88,2.0,3.0,89,0.00,,,0.01,,2013-07-17 04:22:00,
2013-07-16 22:32:00,57.0,53.0,29.90,ESE,104,2.0,5.0,87,0.00,,,0.01,,2013-07-17 04:32:00,
2013-07-16 22:43:00,57.0,53.0,29.90,ESE,104,2.0,5.0,87,0.00,,,0.01,,2013-07-17 04:43:00,
2013-07-16 22:53:00,57.0,53.0,29.91,SE,139,2.0,4.0,86,0.00,,,0.01,,2013-07-17 04:53:00,
2013-07-16 23:02:00,57.0,53.0,29.91,South,173,2.0,5.0,86,0.00,,,0.01,,2013-07-17 05:02:00,
2013-07-16 23:11:00,57.0,53.0,29.91,South,173,2.0,5.0,86,0.00,,,0.01,,2013-07-17 05:11:00,
2013-07-16 23:22:00,57.0,53.0,29.91,South,173,2.0,4.0,86,0.00,,,0.01,,2013-07-17 05:22:00,
2013-07-16 23:32:00,57.0,52.0,29.92,SSE,155,3.0,5.0,84,0.00,,,0.01,,2013-07-17 05:32:00,
2013-07-16 23:43:00,57.0,52.0,29.92,SSE,155,3.0,5.0,84,0.00,,,0.01,,2013-07-17 05:43:00,
2013-07-16 23:52:00,57.0,52.0,29.92,SSE,160,1.0,4.0,84,0.00,,,0.01,,2013-07-17 05:52:00,